createdAt,value
2018-12-25T00:01:40.003Z,98654.44
2018-12-25T00:04:10.106Z,98668.16
2018-12-25T00:09:17.317Z,98671.56
2018-12-25T00:11:47.428Z,98682.02
2018-12-25T00:14:17.631Z,98680.45
2018-12-25T00:16:47.760Z,98679.03
2018-12-25T00:19:17.916Z,98678.29
2018-12-25T00:21:49.082Z,98686.84
2018-12-25T00:24:19.222Z,98684.64
2018-12-25T00:26:49.395Z,98691.23
2018-12-25T00:29:20.370Z,98688.78
2018-12-25T00:31:50.734Z,98680.28
2018-12-25T00:34:20.871Z,98686.44
2018-12-25T00:36:51.305Z,98683.64
2018-12-25T00:39:23.753Z,98684.73
2018-12-25T00:41:54.166Z,98683.83
2018-12-25T00:44:24.559Z,98686.58
2018-12-25T00:46:54.808Z,98691.36
2018-12-25T00:49:24.998Z,98692.97
2018-12-25T00:51:55.582Z,98696.34
2018-12-25T00:54:25.733Z,98695.66
2018-12-25T00:56:55.862Z,98696.09
2018-12-25T00:59:26.018Z,98707.05
2018-12-25T01:01:56.239Z,98713.08
2018-12-25T01:04:29.589Z,98714.55
2018-12-25T01:06:59.976Z,98710.32
2018-12-25T01:09:30.086Z,98710.99
2018-12-25T01:12:00.561Z,98714.44
2018-12-25T01:14:31.881Z,98714.83
2018-12-25T01:17:02.457Z,98714.25
2018-12-25T01:19:32.802Z,98718.27
2018-12-25T01:22:03.633Z,98718.48
2018-12-25T01:24:33.808Z,98727.07
2018-12-25T01:27:04.025Z,98722.81
2018-12-25T01:29:34.808Z,98731.15
2018-12-25T01:32:04.981Z,98718.84
2018-12-25T01:34:35.385Z,98719.66
2018-12-25T01:37:06.254Z,98725.03
2018-12-25T01:39:36.982Z,98718.05
2018-12-25T01:42:07.195Z,98725.67
2018-12-25T01:44:37.962Z,98724.14
2018-12-25T01:47:08.127Z,98724.92
2018-12-25T01:49:38.249Z,98720.77
2018-12-25T01:52:08.394Z,98723.78
2018-12-25T01:54:38.571Z,98724.88
2018-12-25T01:57:08.688Z,98729.86
2018-12-25T01:59:38.852Z,98722.06
2018-12-25T02:02:10.173Z,98714.13
2018-12-25T02:04:40.371Z,98726.28
2018-12-25T02:07:10.510Z,98721.37
2018-12-25T02:09:41.160Z,98725.77
2018-12-25T02:12:11.284Z,98729.34
2018-12-25T02:14:41.463Z,98731.75
2018-12-25T02:17:11.868Z,98738.27
2018-12-25T02:19:41.992Z,98742.20
2018-12-25T02:22:12.374Z,98742.20
2018-12-25T02:24:42.501Z,98736.70
2018-12-25T02:27:12.965Z,98736.09
2018-12-25T02:29:43.471Z,98728.72
2018-12-25T02:32:13.594Z,98724.95
2018-12-25T02:34:43.976Z,98728.21
2018-12-25T02:37:14.072Z,98736.88
2018-12-25T02:39:44.174Z,98736.59
2018-12-25T02:42:14.568Z,98727.99
2018-12-25T02:44:44.891Z,98737.69
2018-12-25T02:47:15.358Z,98732.03
2018-12-25T02:49:50.258Z,98737.97
2018-12-25T02:52:17.625Z,98729.07
2018-12-25T02:54:47.998Z,98722.48
2018-12-25T02:57:18.121Z,98727.33
2018-12-25T02:59:48.486Z,98726.63
2018-12-25T03:02:18.595Z,98722.59
2018-12-25T03:04:48.754Z,98713.26
2018-12-25T03:07:18.858Z,98713.05
2018-12-25T03:09:49.077Z,98714.88
2018-12-25T03:12:19.138Z,98701.39
2018-12-25T03:14:49.236Z,98699.23
2018-12-25T03:17:19.331Z,98699.45
2018-12-25T03:19:49.696Z,98701.85
2018-12-25T03:22:19.791Z,98702.97
2018-12-25T03:24:49.913Z,98700.81
2018-12-25T03:27:20.115Z,98699.47
2018-12-25T03:29:50.353Z,98695.55
2018-12-25T03:32:20.430Z,98695.73
2018-12-25T03:34:50.551Z,98695.02
2018-12-25T03:37:20.633Z,98692.33
2018-12-25T03:39:51.024Z,98692.61
2018-12-25T03:42:21.881Z,98690.82
2018-12-25T03:44:52.256Z,98685.48
2018-12-25T03:47:22.302Z,98679.66
2018-12-25T03:49:52.416Z,98677.27
2018-12-25T03:52:22.619Z,98678.85
2018-12-25T03:54:53.066Z,98679.02
2018-12-25T03:57:23.412Z,98675.92
2018-12-25T03:59:53.932Z,98686.44
2018-12-25T04:02:24.312Z,98682.19
2018-12-25T04:04:54.405Z,98676.38
2018-12-25T04:07:24.923Z,98668.23
2018-12-25T04:09:55.643Z,98665.40
2018-12-25T04:12:25.962Z,98663.01
2018-12-25T04:14:56.068Z,98666.55
2018-12-25T04:17:26.201Z,98660.02
2018-12-25T04:19:57.558Z,98665.04
2018-12-25T04:22:27.705Z,98661.03
2018-12-25T04:24:57.874Z,98660.25
2018-12-25T04:27:28.000Z,98654.50
2018-12-25T04:29:58.144Z,98658.49
2018-12-25T04:32:28.279Z,98665.81
2018-12-25T04:34:58.371Z,98666.89
2018-12-25T04:37:28.539Z,98671.31
2018-12-25T04:39:58.670Z,98668.14
2018-12-25T04:42:28.769Z,98668.33
2018-12-25T04:44:59.230Z,98663.42
2018-12-25T04:47:29.359Z,98666.89
2018-12-25T04:49:59.581Z,98670.55
2018-12-25T04:52:29.705Z,98666.97
2018-12-25T04:55:00.183Z,98681.16
2018-12-25T04:57:30.354Z,98686.67
2018-12-25T05:00:00.522Z,98683.68
2018-12-25T05:02:30.705Z,98683.44
2018-12-25T05:05:01.103Z,98684.63
2018-12-25T05:07:31.457Z,98691.16
2018-12-25T05:10:01.632Z,98693.00
2018-12-25T05:12:32.017Z,98692.15
2018-12-25T05:15:02.147Z,98687.11
2018-12-25T05:17:32.904Z,98686.79
2018-12-25T05:20:03.095Z,98680.61
2018-12-25T05:22:33.478Z,98676.48
2018-12-25T05:25:03.856Z,98679.93
2018-12-25T05:27:34.003Z,98680.85
2018-12-25T05:30:04.228Z,98681.19
2018-12-25T05:32:34.553Z,98686.62
2018-12-25T05:35:05.331Z,98691.80
2018-12-25T05:37:35.498Z,98697.12
2018-12-25T05:40:05.848Z,98687.64
2018-12-25T05:42:36.257Z,98682.95
2018-12-25T05:45:06.377Z,98686.39
2018-12-25T05:47:37.188Z,98685.59
2018-12-25T05:50:07.390Z,98689.36
2018-12-25T05:52:37.483Z,98684.14
2018-12-25T05:55:08.547Z,98683.89
2018-12-25T05:57:38.728Z,98676.70
2018-12-25T06:00:09.103Z,98679.70
2018-12-25T06:02:39.217Z,98688.91
2018-12-25T06:05:10.491Z,98693.20
2018-12-25T06:07:40.611Z,98697.67
2018-12-25T06:10:10.967Z,98711.44
2018-12-25T06:12:41.325Z,98714.88
2018-12-25T06:15:11.747Z,98716.88
2018-12-25T06:17:41.934Z,98725.60
2018-12-25T06:20:12.072Z,98712.92
2018-12-25T06:22:42.398Z,98713.22
2018-12-25T06:25:12.514Z,98701.38
2018-12-25T06:27:42.611Z,98698.42
2018-12-25T06:30:13.049Z,98694.55
2018-12-25T06:32:43.638Z,98688.03
2018-12-25T06:35:14.013Z,98694.22
2018-12-25T06:37:44.395Z,98696.75
2018-12-25T06:40:14.507Z,98696.36
2018-12-25T06:42:44.693Z,98699.88
2018-12-25T06:45:15.768Z,98709.62
2018-12-25T06:47:46.206Z,98707.20
2018-12-25T06:52:38.815Z,98689.76
2018-12-25T06:55:09.012Z,98690.32
2018-12-25T06:57:39.337Z,98688.95
2018-12-25T07:00:09.569Z,98687.52
2018-12-25T07:02:39.915Z,98682.46
2018-12-25T07:05:10.026Z,98684.63
2018-12-25T07:07:40.232Z,98683.34
2018-12-25T07:10:10.698Z,98671.92
2018-12-25T07:12:41.078Z,98686.16
2018-12-25T07:15:11.475Z,98686.74
2018-12-25T07:17:41.766Z,98689.67
2018-12-25T07:20:11.872Z,98690.64
2018-12-25T07:22:42.521Z,98691.78
2018-12-25T07:25:12.623Z,98696.70
2018-12-25T07:27:43.071Z,98687.34
2018-12-25T07:30:13.406Z,98692.19
2018-12-25T07:32:43.636Z,98690.56
2018-12-25T07:35:13.735Z,98687.50
2018-12-25T07:37:44.011Z,98684.95
2018-12-25T07:40:14.449Z,98685.28
2018-12-25T07:42:44.769Z,98694.73
2018-12-25T07:45:14.927Z,98691.20
2018-12-25T07:47:45.033Z,98690.17
2018-12-25T07:50:15.537Z,98686.75
2018-12-25T07:52:45.968Z,98701.40
2018-12-25T07:55:16.192Z,98703.28
2018-12-25T07:57:46.350Z,98700.61
2018-12-25T08:00:16.443Z,98697.53
2018-12-25T08:02:46.859Z,98699.40
2018-12-25T08:05:16.980Z,98698.73
2018-12-25T08:07:47.565Z,98690.22
2018-12-25T08:10:17.810Z,98695.59
2018-12-25T08:12:48.278Z,98702.64
2018-12-25T08:15:18.369Z,98709.70
2018-12-25T08:17:48.454Z,98700.16
2018-12-25T08:20:18.846Z,98690.43
2018-12-25T08:22:49.247Z,98681.58
2018-12-25T08:25:19.630Z,98679.87
2018-12-25T08:27:50.529Z,98685.55
2018-12-25T08:30:20.688Z,98687.03
2018-12-25T08:32:50.785Z,98684.47
2018-12-25T08:35:21.016Z,98682.29
2018-12-25T08:37:51.134Z,98680.17
2018-12-25T08:40:21.541Z,98678.62
2018-12-25T08:42:51.773Z,98673.66
2018-12-25T08:45:21.929Z,98654.13
2018-12-25T08:47:52.051Z,98658.52
2018-12-25T08:50:22.296Z,98673.81
2018-12-25T08:52:52.426Z,98675.85
2018-12-25T08:55:22.605Z,98681.97
2018-12-25T08:57:54.824Z,98674.75
2018-12-25T09:00:24.853Z,98671.92
2018-12-25T09:02:55.270Z,98678.84
2018-12-25T09:05:25.402Z,98690.16
2018-12-25T09:07:55.521Z,98687.14
2018-12-25T09:10:25.790Z,98675.66
2018-12-25T09:12:56.178Z,98678.05
2018-12-25T09:15:26.587Z,98678.91
2018-12-25T09:17:56.690Z,98679.70
2018-12-25T09:20:26.785Z,98688.22
2018-12-25T09:22:56.956Z,98684.14
2018-12-25T09:25:27.192Z,98699.89
2018-12-25T09:27:57.760Z,98685.52
2018-12-25T09:30:27.870Z,98675.78
2018-12-25T09:32:57.981Z,98672.84
2018-12-25T09:35:28.532Z,98677.59
2018-12-25T09:37:59.817Z,98676.41
2018-12-25T09:40:29.944Z,98658.19
2018-12-25T09:43:00.438Z,98642.60
2018-12-25T09:45:30.571Z,98650.23
2018-12-25T09:48:00.682Z,98652.23
2018-12-25T09:50:30.853Z,98650.34
2018-12-25T09:53:01.456Z,98656.27
2018-12-25T09:55:32.588Z,98655.84
2018-12-25T09:58:02.909Z,98666.55
2018-12-25T10:00:33.015Z,98661.02
2018-12-25T10:03:03.451Z,98648.15
2018-12-25T10:05:33.849Z,98651.78
2018-12-25T10:08:04.172Z,98639.05
2018-12-25T10:10:34.294Z,98640.36
2018-12-25T10:13:04.679Z,98642.71
2018-12-25T10:15:34.851Z,98645.86
2018-12-25T10:18:05.119Z,98649.81
2018-12-25T10:20:35.676Z,98649.08
2018-12-25T10:23:06.365Z,98666.47
2018-12-25T10:25:36.707Z,98678.39
2018-12-25T10:28:07.064Z,98683.52
2018-12-25T10:30:37.535Z,98687.99
2018-12-25T10:33:07.825Z,98684.02
2018-12-25T10:35:38.223Z,98685.92
2018-12-25T10:38:08.430Z,98681.22
2018-12-25T10:40:38.540Z,98676.64
2018-12-25T10:43:09.139Z,98667.20
2018-12-25T10:45:39.266Z,98661.53
2018-12-25T10:48:09.488Z,98663.02
2018-12-25T10:50:41.771Z,98657.30
2018-12-25T10:53:11.589Z,98659.83
2018-12-25T10:55:41.702Z,98667.83
2018-12-25T10:58:12.093Z,98673.77
2018-12-25T11:00:46.645Z,98671.70
2018-12-25T11:03:16.880Z,98671.06
2018-12-25T11:05:47.339Z,98672.13
2018-12-25T11:08:17.507Z,98668.19
2018-12-25T11:10:47.812Z,98665.87
2018-12-25T11:13:17.922Z,98666.42
2018-12-25T11:15:48.072Z,98659.06
2018-12-25T11:18:18.182Z,98655.30
2018-12-25T11:20:48.328Z,98650.54
2018-12-25T11:23:19.171Z,98649.34
2018-12-25T11:25:49.624Z,98652.48
2018-12-25T11:28:19.769Z,98645.58
2018-12-25T11:30:50.948Z,98648.21
2018-12-25T11:33:21.392Z,98653.52
2018-12-25T11:35:51.634Z,98652.14
2018-12-25T11:38:22.089Z,98651.06
2018-12-25T11:40:52.223Z,98646.88
2018-12-25T11:43:22.589Z,98638.63
2018-12-25T11:45:52.775Z,98649.22
2018-12-25T11:48:23.339Z,98646.67
2018-12-25T11:50:53.465Z,98643.56
2018-12-25T11:53:24.377Z,98652.69
2018-12-25T11:55:54.858Z,98647.44
2018-12-25T11:58:25.293Z,98652.61
2018-12-25T12:00:55.595Z,98653.30
2018-12-25T12:03:25.743Z,98658.63
2018-12-25T12:05:57.245Z,98655.53
2018-12-25T12:08:27.423Z,98654.70
2018-12-25T12:10:57.582Z,98653.59
2018-12-25T12:13:27.913Z,98653.38
2018-12-25T12:15:58.097Z,98649.86
2018-12-25T12:18:28.460Z,98651.70
2018-12-25T12:20:58.556Z,98649.60
2018-12-25T12:23:28.964Z,98642.84
2018-12-25T12:25:59.334Z,98640.69
2018-12-25T12:28:29.440Z,98635.18
2018-12-25T12:30:59.559Z,98636.78
2018-12-25T12:33:29.819Z,98629.88
2018-12-25T12:36:00.242Z,98627.55
2018-12-25T12:38:30.868Z,98632.49
2018-12-25T12:41:01.804Z,98636.31
2018-12-25T12:43:32.026Z,98643.73
2018-12-25T12:46:02.128Z,98645.03
2018-12-25T12:48:32.571Z,98639.34
2018-12-25T12:51:03.014Z,98643.15
2018-12-25T12:53:33.112Z,98646.18
2018-12-25T12:56:03.218Z,98640.73
2018-12-25T12:58:33.620Z,98645.66
2018-12-25T13:01:03.764Z,98643.27
2018-12-25T13:03:34.991Z,98640.88
2018-12-25T13:06:05.371Z,98646.38
2018-12-25T13:08:35.765Z,98640.34
2018-12-25T13:11:05.916Z,98649.17
2018-12-25T13:13:36.048Z,98653.66
2018-12-25T13:16:06.180Z,98660.12
2018-12-25T13:18:36.954Z,98660.55
2018-12-25T13:21:07.358Z,98664.06
2018-12-25T13:23:37.607Z,98671.94
2018-12-25T13:26:08.081Z,98673.27
2018-12-25T13:28:38.463Z,98679.03
2018-12-25T13:31:08.949Z,98677.06
2018-12-25T13:33:39.047Z,98674.05
2018-12-25T13:36:09.440Z,98681.41
2018-12-25T13:38:39.603Z,98684.77
2018-12-25T13:41:10.275Z,98682.52
2018-12-25T13:43:40.396Z,98691.30
2018-12-25T13:46:10.528Z,98690.23
2018-12-25T13:48:40.983Z,98692.73
2018-12-25T13:51:11.451Z,98690.58
2018-12-25T13:53:41.651Z,98694.36
2018-12-25T13:56:11.774Z,98688.64
2018-12-25T13:58:42.000Z,98695.65
2018-12-25T14:01:12.727Z,98694.71
2018-12-25T14:03:42.855Z,98698.02
2018-12-25T14:06:13.105Z,98706.72
2018-12-25T14:08:43.627Z,98705.94
2018-12-25T14:11:14.844Z,98708.61
2018-12-25T14:13:45.263Z,98713.00
2018-12-25T14:16:15.474Z,98721.63
2018-12-25T14:18:46.154Z,98717.36
2018-12-25T14:21:16.571Z,98717.52
2018-12-25T14:23:46.984Z,98712.91
2018-12-25T14:26:18.129Z,98714.03
2018-12-25T14:28:48.255Z,98717.14
2018-12-25T14:31:19.136Z,98718.09
2018-12-25T14:33:50.232Z,98722.13
2018-12-25T14:36:20.363Z,98722.64
2018-12-25T14:38:50.472Z,98713.90
2018-12-25T14:41:20.651Z,98709.30
2018-12-25T14:43:51.048Z,98708.34
2018-12-25T14:46:21.223Z,98708.91
2018-12-25T14:48:51.359Z,98699.48
2018-12-25T14:51:21.929Z,98703.19
2018-12-25T14:53:52.152Z,98708.66
2018-12-25T14:56:22.283Z,98708.27
2018-12-25T14:58:52.689Z,98709.93
2018-12-25T15:01:25.732Z,98711.51
2018-12-25T15:03:55.892Z,98709.08
2018-12-25T15:06:26.055Z,98715.05
2018-12-25T15:08:56.183Z,98713.00
2018-12-25T15:11:26.279Z,98713.59
2018-12-25T15:13:56.407Z,98720.02
2018-12-25T15:16:26.557Z,98721.39
2018-12-25T15:18:56.956Z,98711.41
2018-12-25T15:21:27.083Z,98710.98
2018-12-25T15:23:57.208Z,98718.66
2018-12-25T15:26:27.710Z,98722.92
2018-12-25T15:28:57.830Z,98717.88
2018-12-25T15:31:27.971Z,98714.14
2018-12-25T15:33:58.717Z,98715.43
2018-12-25T15:36:29.028Z,98723.20
2018-12-25T15:38:59.835Z,98728.57
2018-12-25T15:41:29.988Z,98727.56
2018-12-25T15:44:00.599Z,98726.14
2018-12-25T15:46:31.027Z,98722.09
2018-12-25T15:49:01.148Z,98726.16
2018-12-25T15:51:31.273Z,98732.21
2018-12-25T15:54:01.418Z,98732.37
2018-12-25T15:56:31.517Z,98727.44
2018-12-25T15:59:01.611Z,98727.72
2018-12-25T16:01:32.116Z,98732.75
2018-12-25T16:04:02.577Z,98723.58
2018-12-25T16:06:33.443Z,98725.80
2018-12-25T16:09:04.401Z,98726.70
2018-12-25T16:11:35.138Z,98728.66
2018-12-25T16:14:05.286Z,98728.01
2018-12-25T16:16:35.665Z,98725.23
2018-12-25T16:19:05.821Z,98714.68
2018-12-25T16:21:35.943Z,98718.55
2018-12-25T16:24:06.495Z,98724.66
2018-12-25T16:26:36.796Z,98724.92
2018-12-25T16:29:07.074Z,98727.11
2018-12-25T16:31:37.634Z,98725.31
2018-12-25T16:34:08.020Z,98723.16
2018-12-25T16:36:38.377Z,98722.22
2018-12-25T16:39:10.832Z,98720.66
2018-12-25T16:41:41.573Z,98720.58
2018-12-25T16:44:11.784Z,98729.30
2018-12-25T16:46:41.945Z,98729.09
2018-12-25T16:49:12.303Z,98725.94
2018-12-25T16:51:42.797Z,98724.80
2018-12-25T16:54:13.468Z,98726.98
2018-12-25T16:56:43.564Z,98717.58
2018-12-25T16:59:14.373Z,98718.58
2018-12-25T17:01:44.493Z,98720.76
2018-12-25T17:04:15.434Z,98725.33
2018-12-25T17:06:45.678Z,98727.58
2018-12-25T17:09:15.980Z,98726.81
2018-12-25T17:11:46.063Z,98733.98
2018-12-25T17:14:16.245Z,98727.70
2018-12-25T17:16:46.487Z,98740.53
2018-12-25T17:19:17.120Z,98737.59
2018-12-25T17:21:47.269Z,98738.55
2018-12-25T17:24:18.198Z,98744.66
2018-12-25T17:26:48.377Z,98746.30
2018-12-25T17:29:18.819Z,98748.03
2018-12-25T17:31:49.208Z,98752.11
2018-12-25T17:34:19.639Z,98750.80
2018-12-25T17:36:50.811Z,98759.20
2018-12-25T17:39:21.595Z,98759.33
2018-12-25T17:41:52.001Z,98760.80
2018-12-25T17:44:22.188Z,98766.86
2018-12-25T17:46:52.377Z,98766.95
2018-12-25T17:49:22.757Z,98769.83
2018-12-25T17:51:52.974Z,98768.14
2018-12-25T17:54:23.367Z,98772.70
2018-12-25T17:56:53.749Z,98770.88
2018-12-25T17:59:24.238Z,98767.50
2018-12-25T18:01:54.504Z,98768.46
2018-12-25T18:04:24.767Z,98759.67
2018-12-25T18:06:55.137Z,98757.90
2018-12-25T18:09:25.273Z,98762.14
2018-12-25T18:11:55.495Z,98756.84
2018-12-25T18:14:25.611Z,98759.88
2018-12-25T18:16:55.787Z,98759.67
2018-12-25T18:19:25.909Z,98757.40
2018-12-25T18:21:56.005Z,98761.22
2018-12-25T18:24:26.536Z,98757.31
2018-12-25T18:26:56.657Z,98748.67
2018-12-25T18:29:26.831Z,98752.19
2018-12-25T18:31:57.114Z,98758.02
2018-12-25T18:34:27.198Z,98756.34
2018-12-25T18:36:58.846Z,98759.03
2018-12-25T18:39:30.301Z,98763.28
2018-12-25T18:42:01.029Z,98761.22
2018-12-25T18:44:32.881Z,98760.86
2018-12-25T18:47:03.522Z,98747.55
2018-12-25T18:49:33.736Z,98748.77
2018-12-25T18:52:04.313Z,98746.49
2018-12-25T18:54:34.566Z,98744.21
2018-12-25T18:57:04.715Z,98742.48
2018-12-25T18:59:34.833Z,98737.14
2018-12-25T19:02:06.026Z,98739.09
2018-12-25T19:04:36.518Z,98731.28
2018-12-25T19:07:06.882Z,98736.25
2018-12-25T19:09:37.394Z,98738.08
2018-12-25T19:12:07.640Z,98732.95
2018-12-25T19:14:49.726Z,98732.05
2018-12-25T19:17:20.217Z,98735.08
2018-12-25T19:19:50.724Z,98729.41
2018-12-25T19:22:22.232Z,98731.98
2018-12-25T19:24:52.364Z,98739.37
2018-12-25T19:27:22.901Z,98736.25
2018-12-25T19:29:53.328Z,98736.25
2018-12-25T19:32:23.476Z,98732.64
2018-12-25T19:34:56.535Z,98735.22
2018-12-25T19:37:28.581Z,98738.22
2018-12-25T19:39:58.903Z,98735.64
2018-12-25T19:42:29.373Z,98745.27
2018-12-25T19:44:59.789Z,98738.02
2018-12-25T19:47:30.048Z,98732.45
2018-12-25T19:50:00.299Z,98729.73
2018-12-25T19:52:30.765Z,98727.89
2018-12-25T19:55:00.966Z,98724.64
2018-12-25T19:57:31.226Z,98725.53
2018-12-25T20:00:01.639Z,98728.39
2018-12-25T20:02:32.046Z,98725.55
2018-12-25T20:05:38.705Z,98725.94
2018-12-25T20:08:41.402Z,98721.52
2018-12-25T20:11:46.990Z,98722.97
2018-12-25T20:14:57.022Z,98722.84
2018-12-25T20:18:14.542Z,98728.89
2018-12-25T20:21:08.764Z,98727.30
2018-12-25T20:24:19.926Z,98727.50
2018-12-25T20:27:36.169Z,98725.19
2018-12-25T20:30:51.754Z,98735.50
2018-12-25T20:33:39.104Z,98725.94
2018-12-25T20:36:49.323Z,98733.44
2018-12-25T20:40:06.391Z,98731.44
2018-12-25T20:43:28.318Z,98725.04
2018-12-25T20:46:35.805Z,98721.25
2018-12-25T20:49:38.646Z,98721.05
2018-12-25T20:52:48.923Z,98717.45
2018-12-25T20:56:18.265Z,98716.88
2018-12-25T20:59:32.337Z,98706.36
2018-12-25T21:02:55.591Z,98698.67
2018-12-25T21:06:08.332Z,98701.20
2018-12-25T21:09:27.009Z,98694.37
2018-12-25T21:12:43.842Z,98698.63
2018-12-25T21:15:39.473Z,98697.58
2018-12-25T21:18:58.241Z,98695.27
2018-12-25T21:22:09.050Z,98698.63
2018-12-25T21:25:15.011Z,98693.58
2018-12-25T21:27:43.450Z,98701.98
2018-12-25T21:30:13.570Z,98708.04
2018-12-25T21:32:44.771Z,98695.58
2018-12-25T21:35:25.298Z,98697.95
2018-12-25T21:37:57.703Z,98685.78
2018-12-25T21:40:28.804Z,98691.06
2018-12-25T21:42:59.361Z,98684.04
2018-12-25T21:45:30.143Z,98680.80
2018-12-25T21:48:00.879Z,98680.25
2018-12-25T21:50:31.592Z,98675.52
2018-12-25T21:53:02.122Z,98676.16
2018-12-25T21:55:32.648Z,98679.19
2018-12-25T21:58:03.869Z,98682.76
2018-12-25T22:00:35.418Z,98679.16
2018-12-25T22:03:05.908Z,98674.50
2018-12-25T22:05:36.481Z,98675.29
2018-12-25T22:08:06.934Z,98679.84
2018-12-25T22:10:37.536Z,98673.88
2018-12-25T22:13:07.660Z,98684.49
2018-12-25T22:15:37.876Z,98676.29
2018-12-25T22:18:09.597Z,98668.25
2018-12-25T22:20:40.484Z,98669.27
2018-12-25T22:23:10.880Z,98673.58
2018-12-25T22:25:41.051Z,98667.44
2018-12-25T22:28:11.137Z,98664.94
2018-12-25T22:30:41.671Z,98663.66
2018-12-25T22:33:11.796Z,98666.56
2018-12-25T22:35:42.470Z,98664.06
2018-12-25T22:38:12.611Z,98659.14
2018-12-25T22:40:42.761Z,98655.80
2018-12-25T22:43:13.180Z,98645.16
2018-12-25T22:45:43.456Z,98642.83
2018-12-25T22:48:13.971Z,98634.83
2018-12-25T22:50:44.141Z,98628.48
2018-12-25T22:53:15.386Z,98621.69
2018-12-25T22:55:45.775Z,98624.25
2018-12-25T22:58:15.930Z,98626.39
2018-12-25T23:00:46.346Z,98632.84
2018-12-25T23:03:23.765Z,98634.77
2018-12-25T23:05:54.825Z,98625.55
2018-12-25T23:08:24.961Z,98629.56
2018-12-25T23:10:55.311Z,98625.95
2018-12-25T23:13:25.438Z,98624.62
2018-12-25T23:15:55.581Z,98632.67
2018-12-25T23:18:25.680Z,98632.09
2018-12-25T23:20:55.809Z,98630.88
2018-12-25T23:23:25.953Z,98637.52
2018-12-25T23:25:56.386Z,98634.03
2018-12-25T23:28:26.590Z,98639.51
2018-12-25T23:30:57.057Z,98639.44
2018-12-25T23:33:27.199Z,98636.77
2018-12-25T23:35:57.349Z,98641.11
2018-12-25T23:38:27.784Z,98641.79
2018-12-25T23:40:57.938Z,98634.92
2018-12-25T23:43:28.058Z,98634.02
2018-12-25T23:45:58.224Z,98626.41
2018-12-25T23:48:28.364Z,98630.30
2018-12-25T23:50:58.555Z,98628.92
2018-12-25T23:53:28.704Z,98629.70
2018-12-25T23:55:58.817Z,98624.22
2018-12-25T23:58:28.963Z,98627.50
